createdAt,value
2017-01-04T00:00:13.739Z,22.72
2017-01-04T00:00:54.233Z,22.73
2017-01-04T00:01:34.713Z,22.63
2017-01-04T00:02:15.205Z,22.34
2017-01-04T00:02:55.691Z,22.53
2017-01-04T00:03:36.183Z,22.34
2017-01-04T00:04:16.692Z,22.44
2017-01-04T00:04:57.182Z,22.63
2017-01-04T00:05:37.676Z,22.05
2017-01-04T00:06:18.176Z,22.05
2017-01-04T00:06:58.659Z,22.44
2017-01-04T00:07:39.153Z,22.44
2017-01-04T00:08:19.641Z,22.63
2017-01-04T00:09:00.135Z,22.15
2017-01-04T00:09:40.624Z,21.96
2017-01-04T00:10:21.137Z,22.34
2017-01-04T00:11:01.628Z,22.05
2017-01-04T00:11:42.135Z,22.34
2017-01-04T00:12:22.624Z,22.15
2017-01-04T00:13:03.119Z,22.05
2017-01-04T00:13:43.600Z,22.34
2017-01-04T00:14:24.093Z,22.33
2017-01-04T00:15:04.583Z,22.15
2017-01-04T00:15:45.070Z,22.05
2017-01-04T00:16:25.565Z,22.05
2017-01-04T00:17:06.062Z,22.44
2017-01-04T00:17:46.554Z,22.34
2017-01-04T00:18:27.041Z,22.34
2017-01-04T00:19:07.522Z,22.05
2017-01-04T00:19:48.024Z,22.05
2017-01-04T00:20:28.514Z,22.15
2017-01-04T00:21:09.033Z,22.34
2017-01-04T00:21:49.516Z,22.34
2017-01-04T00:22:30.009Z,22.24
2017-01-04T00:23:10.492Z,22.25
2017-01-04T00:23:50.985Z,22.81
2017-01-04T00:24:31.484Z,22.43
2017-01-04T00:25:11.964Z,22.05
2017-01-04T00:25:52.466Z,22.05
2017-01-04T00:26:32.958Z,22.52
2017-01-04T00:27:13.465Z,22.52
2017-01-04T00:27:53.956Z,22.25
2017-01-04T00:28:34.454Z,22.44
2017-01-04T00:29:14.934Z,22.24
2017-01-04T00:29:55.414Z,22.05
2017-01-04T00:30:35.931Z,22.24
2017-01-04T00:31:16.432Z,22.33
2017-01-04T00:31:56.922Z,22.33
2017-01-04T00:32:37.403Z,22.14
2017-01-04T00:33:17.898Z,22.15
2017-01-04T00:33:58.389Z,22.14
2017-01-04T00:34:38.879Z,22.14
2017-01-04T00:35:19.363Z,22.24
2017-01-04T00:35:59.848Z,22.05
2017-01-04T00:36:40.341Z,22.05
2017-01-04T00:37:20.843Z,22.15
2017-01-04T00:38:01.344Z,22.25
2017-01-04T00:38:41.843Z,22.14
2017-01-04T00:39:22.355Z,22.05
2017-01-04T00:40:02.842Z,21.85
2017-01-04T00:40:43.336Z,21.86
2017-01-04T00:41:23.820Z,21.67
2017-01-04T00:42:04.310Z,21.95
2017-01-04T00:42:44.802Z,22.24
2017-01-04T00:43:25.291Z,22.14
2017-01-04T00:44:05.798Z,22.15
2017-01-04T00:44:46.288Z,22.14
2017-01-04T00:46:43.955Z,22.25
2017-01-04T00:47:24.459Z,22.05
2017-01-04T00:48:05.149Z,21.95
2017-01-04T00:48:45.645Z,22.14
2017-01-04T00:49:26.125Z,21.96
2017-01-04T00:50:06.603Z,22.14
2017-01-04T00:50:47.106Z,22.24
2017-01-04T00:51:27.596Z,21.96
2017-01-04T00:52:08.113Z,22.05
2017-01-04T00:52:48.596Z,22.05
2017-01-04T00:53:29.091Z,21.86
2017-01-04T00:54:09.572Z,22.14
2017-01-04T00:54:50.050Z,22.05
2017-01-04T00:55:30.549Z,22.05
2017-01-04T00:56:11.042Z,21.85
2017-01-04T00:56:51.554Z,22.15
2017-01-04T00:57:32.038Z,21.86
2017-01-04T00:58:12.553Z,22.05
2017-01-04T00:58:53.037Z,21.85
2017-01-04T00:59:33.533Z,21.86
2017-01-04T01:00:14.044Z,21.77
2017-01-04T01:00:54.545Z,21.75
2017-01-04T01:01:35.033Z,21.86
2017-01-04T01:02:15.548Z,21.95
2017-01-04T01:02:56.035Z,21.86
2017-01-04T01:03:36.545Z,21.86
2017-01-04T01:04:17.032Z,21.77
2017-01-04T01:04:57.525Z,22.05
2017-01-04T01:05:38.032Z,22.15
2017-01-04T01:06:18.510Z,22.14
2017-01-04T01:06:58.994Z,22.14
2017-01-04T01:07:39.480Z,21.75
2017-01-04T01:08:19.992Z,21.85
2017-01-04T01:09:00.480Z,21.67
2017-01-04T01:09:40.971Z,21.85
2017-01-04T01:10:21.476Z,21.85
2017-01-04T01:11:01.971Z,21.86
2017-01-04T01:11:42.452Z,21.95
2017-01-04T01:12:22.947Z,21.75
2017-01-04T01:13:03.452Z,21.85
2017-01-04T01:13:43.931Z,21.86
2017-01-04T01:14:24.433Z,21.85
2017-01-04T01:15:04.919Z,21.85
2017-01-04T01:15:45.433Z,21.58
2017-01-04T01:16:25.923Z,21.56
2017-01-04T01:17:06.417Z,21.56
2017-01-04T01:17:46.896Z,21.85
2017-01-04T01:18:27.471Z,21.75
2017-01-04T01:19:08.082Z,21.85
2017-01-04T01:19:48.468Z,21.75
2017-01-04T01:20:28.963Z,21.95
2017-01-04T01:21:09.445Z,21.75
2017-01-04T01:21:49.925Z,21.66
2017-01-04T01:22:30.427Z,21.86
2017-01-04T01:23:10.915Z,21.85
2017-01-04T01:23:51.409Z,21.56
2017-01-04T01:24:31.888Z,21.48
2017-01-04T01:25:12.369Z,21.58
2017-01-04T01:25:52.889Z,21.66
2017-01-04T01:26:33.392Z,21.58
2017-01-04T01:27:13.889Z,21.48
2017-01-04T01:27:54.373Z,21.75
2017-01-04T01:28:34.865Z,21.56
2017-01-04T01:29:15.360Z,21.66
2017-01-04T01:29:55.853Z,21.66
2017-01-04T01:30:36.357Z,21.85
2017-01-04T01:31:16.863Z,21.95
2017-01-04T01:31:57.352Z,21.95
2017-01-04T01:32:37.866Z,22.05
2017-01-04T01:33:18.356Z,22.05
2017-01-04T01:33:58.862Z,21.75
2017-01-04T01:34:39.353Z,21.75
2017-01-04T01:35:19.848Z,21.85
2017-01-04T01:36:00.348Z,21.95
2017-01-04T01:36:40.868Z,21.85
2017-01-04T01:37:21.354Z,21.85
2017-01-04T01:38:01.849Z,21.75
2017-01-04T01:38:42.348Z,21.75
2017-01-04T01:39:22.856Z,21.56
2017-01-04T01:40:03.346Z,21.56
2017-01-04T01:40:43.858Z,21.56
2017-01-04T01:41:24.348Z,21.66
2017-01-04T01:42:04.841Z,21.75
2017-01-04T01:42:45.321Z,21.58
2017-01-04T01:43:25.821Z,21.37
2017-01-04T01:44:06.326Z,21.66
2017-01-04T01:44:46.823Z,21.75
2017-01-04T01:45:27.310Z,21.56
2017-01-04T01:46:07.800Z,21.56
2017-01-04T01:46:48.295Z,21.56
2017-01-04T01:47:28.789Z,21.56
2017-01-04T01:48:09.301Z,21.27
2017-01-04T01:48:49.790Z,21.56
2017-01-04T01:49:30.304Z,21.66
2017-01-04T01:50:10.787Z,21.66
2017-01-04T01:50:51.301Z,21.56
2017-01-04T01:51:31.789Z,21.18
2017-01-04T01:52:12.281Z,21.56
2017-01-04T01:52:52.764Z,21.47
2017-01-04T01:53:33.245Z,21.37
2017-01-04T01:54:13.743Z,21.56
2017-01-04T01:54:54.230Z,21.56
2017-01-04T01:55:34.742Z,21.56
2017-01-04T01:56:15.232Z,21.75
2017-01-04T01:56:55.744Z,21.37
2017-01-04T01:57:36.230Z,21.66
2017-01-04T01:58:16.724Z,21.66
2017-01-04T01:58:57.205Z,21.47
2017-01-04T01:59:37.684Z,21.27
2017-01-04T02:00:18.186Z,20.8
2017-01-04T02:00:58.677Z,21.47
2017-01-04T02:01:39.254Z,21.47
2017-01-04T02:02:19.755Z,21.56
2017-01-04T02:03:00.246Z,21.56
2017-01-04T02:03:40.737Z,21.37
2017-01-04T02:04:21.226Z,20.89
2017-01-04T02:05:01.741Z,20.8
2017-01-04T02:05:42.249Z,21.08
2017-01-04T02:06:22.738Z,20.9
2017-01-04T02:07:03.226Z,21.37
2017-01-04T02:07:43.721Z,21.37
2017-01-04T02:08:24.198Z,21.27
2017-01-04T02:09:05.554Z,21.27
2017-01-04T02:09:45.163Z,21.27
2017-01-04T02:10:25.660Z,20.89
2017-01-04T02:11:06.146Z,20.89
2017-01-04T02:11:46.645Z,21.27
2017-01-04T02:12:27.133Z,20.8
2017-01-04T02:13:07.640Z,20.79
2017-01-04T02:13:48.119Z,21.09
2017-01-04T02:14:28.608Z,20.98
2017-01-04T02:15:09.113Z,20.98
2017-01-04T02:15:49.610Z,20.98
2017-01-04T02:16:30.087Z,21.08
2017-01-04T02:17:10.575Z,20.89
2017-01-04T02:17:51.071Z,21.19
2017-01-04T02:18:31.562Z,21.18
2017-01-04T02:19:12.065Z,20.89
2017-01-04T02:19:52.548Z,20.89
2017-01-04T02:20:33.039Z,20.98
2017-01-04T02:21:13.533Z,20.98
2017-01-04T02:21:54.026Z,20.89
2017-01-04T02:22:34.529Z,20.89
2017-01-04T02:23:15.024Z,21.18
2017-01-04T02:23:55.548Z,20.9
2017-01-04T02:24:36.028Z,20.89
2017-01-04T02:25:16.521Z,20.5
2017-01-04T02:25:57.008Z,20.5
2017-01-04T02:26:37.510Z,20.98
2017-01-04T02:27:17.999Z,20.89
2017-01-04T02:27:58.496Z,20.89
2017-01-04T02:28:39.000Z,20.89
2017-01-04T02:29:19.489Z,20.89
2017-01-04T02:29:59.973Z,20.98
2017-01-04T02:30:40.458Z,20.98
2017-01-04T02:31:20.960Z,20.89
2017-01-04T02:32:01.439Z,20.89
2017-01-04T02:32:41.941Z,21.18
2017-01-04T02:33:22.441Z,21.08
2017-01-04T02:34:02.940Z,20.89
2017-01-04T02:34:43.435Z,21.27
2017-01-04T02:35:23.939Z,21.37
2017-01-04T02:36:04.435Z,20.89
2017-01-04T02:36:44.950Z,20.79
2017-01-04T02:37:25.436Z,21.08
2017-01-04T02:38:05.927Z,20.98
2017-01-04T02:38:46.413Z,20.98
2017-01-04T02:39:26.893Z,21.08
2017-01-04T02:40:07.382Z,20.89
2017-01-04T02:40:47.875Z,21.27
2017-01-04T02:41:28.356Z,20.79
2017-01-04T02:42:08.846Z,20.89
2017-01-04T02:42:49.336Z,20.89
2017-01-04T02:43:29.838Z,21.08
2017-01-04T02:44:10.327Z,21.08
2017-01-04T02:44:50.837Z,21.18
2017-01-04T02:45:31.327Z,21.18
2017-01-04T02:46:11.822Z,20.89
2017-01-04T02:46:52.304Z,21.18
2017-01-04T02:47:32.794Z,21.08
2017-01-04T02:48:13.284Z,20.89
2017-01-04T02:48:53.774Z,20.5
2017-01-04T02:49:34.267Z,20.79
2017-01-04T02:50:14.749Z,20.5
2017-01-04T02:50:55.238Z,20.7
2017-01-04T02:51:35.729Z,20.7
2017-01-04T02:52:16.218Z,21.18
2017-01-04T02:52:56.726Z,21.18
2017-01-04T02:53:37.219Z,21.08
2017-01-04T02:54:17.715Z,21.08
2017-01-04T02:54:58.414Z,20.89
2017-01-04T02:55:38.899Z,20.5
2017-01-04T02:56:19.396Z,20.6
2017-01-04T02:56:59.873Z,20.6
2017-01-04T02:57:40.360Z,20.6
2017-01-04T02:58:20.862Z,20.7
2017-01-04T02:59:01.344Z,20.79
2017-01-04T02:59:41.830Z,20.7
2017-01-04T03:00:22.317Z,20.5
2017-01-04T03:01:02.810Z,20.79
2017-01-04T03:01:43.291Z,20.5
2017-01-04T03:02:23.787Z,20.6
2017-01-04T03:03:04.278Z,20.89
2017-01-04T03:03:44.762Z,20.79
2017-01-04T03:04:25.253Z,20.6
2017-01-04T03:05:05.735Z,20.79
2017-01-04T03:05:46.215Z,20.79
2017-01-04T03:06:26.719Z,20.7
2017-01-04T03:07:07.206Z,20.6
2017-01-04T03:07:47.700Z,20.4
2017-01-04T03:08:28.183Z,20.7
2017-01-04T03:09:08.662Z,20.5
2017-01-04T03:09:49.160Z,20.89
2017-01-04T03:10:29.653Z,20.5
2017-01-04T03:11:10.146Z,20.6
2017-01-04T03:11:50.627Z,20.5
2017-01-04T03:12:31.119Z,20.5
2017-01-04T03:13:11.611Z,20.6
2017-01-04T03:13:52.097Z,20.7
2017-01-04T03:14:32.595Z,20.5
2017-01-04T03:15:13.095Z,20.6
2017-01-04T03:15:53.590Z,20.4
2017-01-04T03:17:41.074Z,20.5
2017-01-04T03:18:21.581Z,20.7
2017-01-04T03:19:02.072Z,20.79
2017-01-04T03:19:42.561Z,20.7
2017-01-04T03:20:23.041Z,20.89
2017-01-04T03:21:03.518Z,20.7
2017-01-04T03:21:44.011Z,20.5
2017-01-04T03:22:24.508Z,20.79
2017-01-04T03:23:05.019Z,20.89
2017-01-04T03:23:45.515Z,20.6
2017-01-04T03:24:26.022Z,20.5
2017-01-04T03:25:06.508Z,20.5
2017-01-04T03:25:47.016Z,20.5
2017-01-04T03:26:27.495Z,20.6
2017-01-04T03:27:07.982Z,20.6
2017-01-04T03:27:48.474Z,20.4
2017-01-04T03:28:28.952Z,20.6
2017-01-04T03:29:09.445Z,20.5
2017-01-04T03:29:49.928Z,20.6
2017-01-04T03:30:30.410Z,20.5
2017-01-04T03:31:10.908Z,20.5
2017-01-04T03:31:51.393Z,20.5
2017-01-04T03:32:31.894Z,20.21
2017-01-04T03:33:12.378Z,20.31
2017-01-04T03:33:52.874Z,20.4
2017-01-04T03:34:33.362Z,20.5
2017-01-04T03:35:13.845Z,20.5
2017-01-04T03:35:54.501Z,20.4
2017-01-04T03:36:35.005Z,20.5
2017-01-04T03:37:15.496Z,20.21
2017-01-04T03:37:55.993Z,20.31
2017-01-04T03:38:36.495Z,20.02
2017-01-04T03:39:16.991Z,20.31
2017-01-04T03:39:57.485Z,20.4
2017-01-04T03:40:37.975Z,19.93
2017-01-04T03:41:18.461Z,20.02
2017-01-04T03:41:58.941Z,20.21
2017-01-04T03:42:39.435Z,20.5
2017-01-04T03:43:19.990Z,20.5
2017-01-04T03:44:00.482Z,20.12
2017-01-04T03:44:40.968Z,20.12
2017-01-04T03:45:21.454Z,20.02
2017-01-04T03:46:01.959Z,20.02
2017-01-04T03:46:42.458Z,20.12
2017-01-04T03:47:22.948Z,19.93
2017-01-04T03:48:03.443Z,20.12
2017-01-04T03:48:43.931Z,20.12
2017-01-04T03:49:24.443Z,19.83
2017-01-04T03:50:04.932Z,19.83
2017-01-04T03:50:45.448Z,19.83
2017-01-04T03:51:25.933Z,19.83
2017-01-04T03:52:06.428Z,20.21
2017-01-04T03:52:46.919Z,20.21
2017-01-04T03:53:27.398Z,19.93
2017-01-04T03:54:07.887Z,19.93
2017-01-04T03:54:48.377Z,20.02
2017-01-04T03:55:28.872Z,19.73
2017-01-04T03:56:09.357Z,19.93
2017-01-04T03:56:49.828Z,19.83
2017-01-04T03:57:30.332Z,19.83
2017-01-04T03:58:10.821Z,20.02
2017-01-04T03:58:51.318Z,20.02
2017-01-04T03:59:31.798Z,19.72
2017-01-04T04:00:12.282Z,19.83
2017-01-04T04:00:52.782Z,19.83
2017-01-04T04:01:33.269Z,19.93
2017-01-04T04:02:13.768Z,19.93
2017-01-04T04:02:54.262Z,19.83
2017-01-04T04:03:34.732Z,19.83
2017-01-04T04:04:15.225Z,19.64
2017-01-04T04:04:55.714Z,19.93
2017-01-04T04:05:36.214Z,20.02
2017-01-04T04:06:16.895Z,19.93
2017-01-04T04:06:57.387Z,19.83
2017-01-04T04:07:37.878Z,20.02
2017-01-04T04:08:18.364Z,19.83
2017-01-04T04:08:58.870Z,19.72
2017-01-04T04:09:39.360Z,20.02
2017-01-04T04:10:19.860Z,19.54
2017-01-04T04:11:00.340Z,19.35
2017-01-04T04:11:40.829Z,19.06
2017-01-04T04:12:21.320Z,19.25
2017-01-04T04:13:01.810Z,19.35
2017-01-04T04:13:42.294Z,19.83
2017-01-04T04:14:22.787Z,20.01
2017-01-04T04:16:15.382Z,19.83
2017-01-04T04:16:55.860Z,19.93
2017-01-04T04:17:36.345Z,19.35
2017-01-04T04:18:16.843Z,19.64
2017-01-04T04:18:57.342Z,19.64
2017-01-04T04:19:37.825Z,19.54
2017-01-04T04:20:18.312Z,19.54
2017-01-04T04:20:58.794Z,19.15
2017-01-04T04:21:39.286Z,19.45
2017-01-04T04:22:19.769Z,19.15
2017-01-04T04:23:00.255Z,19.64
2017-01-04T04:23:40.747Z,19.45
2017-01-04T04:24:21.235Z,19.25
2017-01-04T04:25:01.758Z,19.15
2017-01-04T04:25:42.239Z,19.15
2017-01-04T04:26:22.731Z,19.35
2017-01-04T04:27:03.213Z,19.35
2017-01-04T04:27:43.701Z,19.15
2017-01-04T04:28:24.190Z,19.43
2017-01-04T04:29:04.684Z,19.43
2017-01-04T04:29:45.183Z,19.82
2017-01-04T04:30:25.668Z,19.45
2017-01-04T04:31:06.160Z,19.64
2017-01-04T04:31:46.651Z,19.35
2017-01-04T04:32:27.142Z,19.54
2017-01-04T04:33:07.636Z,19.45
2017-01-04T04:33:48.127Z,19.45
2017-01-04T04:34:28.642Z,19.45
2017-01-04T04:35:09.131Z,19.35
2017-01-04T04:35:49.620Z,19.54
2017-01-04T04:36:30.118Z,19.73
2017-01-04T04:37:10.645Z,19.73
2017-01-04T04:37:51.122Z,19.35
2017-01-04T04:38:31.609Z,19.45
2017-01-04T04:39:12.096Z,19.64
2017-01-04T04:39:53.441Z,19.82
2017-01-04T04:40:33.062Z,19.83
2017-01-04T04:41:13.548Z,19.54
2017-01-04T04:41:54.044Z,19.73
2017-01-04T04:42:34.540Z,19.64
2017-01-04T04:43:15.033Z,19.83
2017-01-04T04:43:55.524Z,19.93
2017-01-04T04:44:36.941Z,20.01
2017-01-04T04:45:16.511Z,19.92
2017-01-04T04:45:57.007Z,20.11
2017-01-04T04:46:37.712Z,20.01
2017-01-04T04:47:18.194Z,19.82
2017-01-04T04:47:58.682Z,19.82
2017-01-04T04:48:39.173Z,20.02
2017-01-04T04:49:19.664Z,19.72
2017-01-04T04:50:00.157Z,20.01
2017-01-04T04:50:40.640Z,19.93
2017-01-04T04:51:21.121Z,19.83
2017-01-04T04:52:01.620Z,20.01
2017-01-04T04:52:42.110Z,19.93
2017-01-04T04:53:22.599Z,19.93
2017-01-04T04:54:03.084Z,19.64
2017-01-04T04:54:43.562Z,19.54
2017-01-04T04:55:24.063Z,19.64
2017-01-04T04:56:04.557Z,19.54
2017-01-04T04:56:45.039Z,19.35
2017-01-04T04:57:25.526Z,19.45
2017-01-04T04:58:06.002Z,19.83
2017-01-04T04:58:46.498Z,19.83
2017-01-04T04:59:26.977Z,19.64
2017-01-04T05:00:07.467Z,19.45
2017-01-04T05:00:47.960Z,19.82
2017-01-04T05:01:28.449Z,19.82
2017-01-04T05:02:08.938Z,19.83
2017-01-04T05:02:49.423Z,19.93
2017-01-04T05:03:29.910Z,19.73
2017-01-04T05:04:10.403Z,19.83
2017-01-04T05:04:50.889Z,19.73
2017-01-04T05:05:31.414Z,19.54
2017-01-04T05:06:11.912Z,19.63
2017-01-04T05:06:52.420Z,19.83
2017-01-04T05:07:32.901Z,19.92
2017-01-04T05:08:13.399Z,20.02
2017-01-04T05:08:53.888Z,19.83
2017-01-04T05:09:34.381Z,19.92
2017-01-04T05:10:14.865Z,20.01
2017-01-04T05:10:55.356Z,19.93
2017-01-04T05:11:35.845Z,19.82
2017-01-04T05:12:16.952Z,19.83
2017-01-04T05:12:56.815Z,19.54
2017-01-04T05:13:37.302Z,19.73
2017-01-04T05:14:17.785Z,19.35
2017-01-04T05:14:58.276Z,19.83
2017-01-04T05:15:38.757Z,19.92
2017-01-04T05:16:19.238Z,19.92
2017-01-04T05:16:59.907Z,19.92
2017-01-04T05:17:40.407Z,19.83
2017-01-04T05:18:20.898Z,19.73
2017-01-04T05:19:01.392Z,20.01
2017-01-04T05:19:41.876Z,19.83
2017-01-04T05:20:22.373Z,19.73
2017-01-04T05:21:02.878Z,20.01
2017-01-04T05:21:43.372Z,20.01
2017-01-04T05:22:23.873Z,19.73
2017-01-04T05:23:04.373Z,20.02
2017-01-04T05:23:44.873Z,20.11
2017-01-04T05:24:25.384Z,20.01
2017-01-04T05:25:05.874Z,20.01
2017-01-04T05:25:46.367Z,20.02
2017-01-04T05:26:26.852Z,19.73
2017-01-04T05:27:07.347Z,19.45
2017-01-04T05:27:47.844Z,19.82
2017-01-04T05:28:28.328Z,20.01
2017-01-04T05:29:08.827Z,19.82
2017-01-04T05:29:49.319Z,20.11
2017-01-04T05:30:29.812Z,20.02
2017-01-04T05:31:10.294Z,20.01
2017-01-04T05:31:50.783Z,19.72
2017-01-04T05:32:31.274Z,19.83
2017-01-04T05:33:11.766Z,19.92
2017-01-04T05:33:52.261Z,20.01
2017-01-04T05:34:32.741Z,20.11
2017-01-04T05:35:13.221Z,20.01
2017-01-04T05:35:53.720Z,19.83
2017-01-04T05:36:34.207Z,19.92
2017-01-04T05:37:14.704Z,19.92
2017-01-04T05:37:55.185Z,19.82
2017-01-04T05:38:35.667Z,19.92
2017-01-04T05:39:16.165Z,19.93
2017-01-04T05:39:56.653Z,19.83
2017-01-04T05:40:37.147Z,19.72
2017-01-04T05:41:17.629Z,19.83
2017-01-04T05:41:58.119Z,20.01
2017-01-04T05:42:38.610Z,19.72
2017-01-04T05:43:19.097Z,19.92
2017-01-04T05:43:59.594Z,19.73
2017-01-04T05:44:40.078Z,19.54
2017-01-04T05:45:20.563Z,19.54
2017-01-04T05:46:01.067Z,19.64
2017-01-04T05:46:41.547Z,19.64
2017-01-04T05:47:22.044Z,19.34
2017-01-04T05:48:02.522Z,19.25
2017-01-04T05:48:42.996Z,19.43
2017-01-04T05:49:23.490Z,19.15
2017-01-04T05:50:03.986Z,19.25
2017-01-04T05:50:44.463Z,19.43
2017-01-04T05:51:24.949Z,19.15
2017-01-04T05:52:05.434Z,19.43
2017-01-04T05:52:45.933Z,19.72
2017-01-04T05:53:26.415Z,19.63
2017-01-04T05:54:06.892Z,19.05
2017-01-04T05:54:47.383Z,19.43
2017-01-04T05:55:27.882Z,19.43
2017-01-04T05:56:08.392Z,19.63
2017-01-04T05:56:48.882Z,19.15
2017-01-04T05:57:29.390Z,19.43
2017-01-04T05:58:09.880Z,19.63
2017-01-04T05:58:50.389Z,19.63
2017-01-04T05:59:30.878Z,19.63
2017-01-04T06:00:11.377Z,19.53
2017-01-04T06:00:51.851Z,19.63
2017-01-04T06:01:32.344Z,19.15
2017-01-04T06:02:12.830Z,19.15
2017-01-04T06:02:53.330Z,19.05
2017-01-04T06:03:33.802Z,19.53
2017-01-04T06:04:14.288Z,19.15
2017-01-04T06:04:54.767Z,19.45
2017-01-04T06:05:35.266Z,19.15
2017-01-04T06:06:15.746Z,19.25
2017-01-04T06:06:56.222Z,19.34
2017-01-04T06:07:36.726Z,19.43
2017-01-04T06:08:17.213Z,19.25
2017-01-04T06:08:57.712Z,19.34
2017-01-04T06:09:38.215Z,19.72
2017-01-04T06:10:18.721Z,19.53
2017-01-04T06:10:59.215Z,19.72
2017-01-04T06:11:39.711Z,19.34
2017-01-04T06:12:20.213Z,19.15
2017-01-04T06:13:00.704Z,19.54
2017-01-04T06:13:41.189Z,19.15
2017-01-04T06:14:21.678Z,19.25
2017-01-04T06:15:02.167Z,19.35
2017-01-04T06:15:42.654Z,19.35
2017-01-04T06:16:23.167Z,19.25
2017-01-04T06:17:03.655Z,19.25
2017-01-04T06:17:44.162Z,19.25
2017-01-04T06:18:24.659Z,19.25
2017-01-04T06:19:05.149Z,19.05
2017-01-04T06:19:45.653Z,19.72
2017-01-04T06:20:26.161Z,19.54
2017-01-04T06:21:06.651Z,19.15
2017-01-04T06:21:47.150Z,19.15
2017-01-04T06:22:27.648Z,19.34
2017-01-04T06:23:08.148Z,19.43
2017-01-04T06:23:48.648Z,19.63
2017-01-04T06:24:29.158Z,19.43
2017-01-04T06:25:09.648Z,19.53
2017-01-04T06:25:50.166Z,19.54
2017-01-04T06:26:30.645Z,19.35
2017-01-04T06:27:11.144Z,19.15
2017-01-04T06:27:51.639Z,19.15
2017-01-04T06:28:32.123Z,19.43
2017-01-04T06:29:12.619Z,19.15
2017-01-04T06:29:53.104Z,19.43
2017-01-04T06:30:33.599Z,19.43
2017-01-04T06:31:14.087Z,19.43
2017-01-04T06:31:54.607Z,19.43
2017-01-04T06:32:35.090Z,19.15
2017-01-04T06:33:15.587Z,19.15
2017-01-04T06:33:56.067Z,19.35
2017-01-04T06:34:36.565Z,19.35
2017-01-04T06:35:17.052Z,19.45
2017-01-04T06:35:57.549Z,19.53
2017-01-04T06:36:38.041Z,19.63
2017-01-04T06:37:18.535Z,19.54
2017-01-04T06:37:59.031Z,19.53
2017-01-04T06:38:39.526Z,19.15
2017-01-04T06:39:20.003Z,19.25
2017-01-04T06:40:00.505Z,19.25
2017-01-04T06:40:40.991Z,19.15
2017-01-04T06:41:21.491Z,19.63
2017-01-04T06:42:02.049Z,19.63
2017-01-04T06:42:42.529Z,19.64
2017-01-04T06:43:23.026Z,19.43
2017-01-04T06:44:03.522Z,19.25
2017-01-04T06:44:44.033Z,19.54
2017-01-04T06:45:24.527Z,19.25
2017-01-04T06:46:05.018Z,19.06
2017-01-04T06:46:45.499Z,19.53
2017-01-04T06:47:25.985Z,19.25
2017-01-04T06:48:06.479Z,19.43
2017-01-04T06:48:46.967Z,19.15
2017-01-04T06:49:27.475Z,19.24
2017-01-04T06:50:07.944Z,19.53
2017-01-04T06:50:48.427Z,19.24
2017-01-04T06:51:28.929Z,19.15
2017-01-04T06:52:09.416Z,19.43
2017-01-04T06:52:49.907Z,19.63
2017-01-04T06:53:30.390Z,19.92
2017-01-04T06:54:10.877Z,19.72
2017-01-04T06:54:51.370Z,19.82
2017-01-04T06:55:31.860Z,19.82
2017-01-04T06:56:12.338Z,19.82
2017-01-04T06:56:52.830Z,19.92
2017-01-04T06:57:33.321Z,20.01
2017-01-04T06:58:13.817Z,19.82
2017-01-04T06:58:54.306Z,19.92
2017-01-04T06:59:34.800Z,19.72
2017-01-04T07:00:15.283Z,19.45
2017-01-04T07:00:55.782Z,19.53
2017-01-04T07:01:36.280Z,19.72
2017-01-04T07:02:16.755Z,19.72
2017-01-04T07:02:57.251Z,19.45
2017-01-04T07:03:37.744Z,19.43
2017-01-04T07:04:18.229Z,19.54
2017-01-04T07:04:58.715Z,19.82
2017-01-04T07:05:39.198Z,19.82
2017-01-04T07:06:19.708Z,19.92
2017-01-04T07:07:00.196Z,19.72
2017-01-04T07:07:40.690Z,19.92
2017-01-04T07:08:21.170Z,19.83
2017-01-04T07:09:01.671Z,19.15
2017-01-04T07:09:42.169Z,19.15
2017-01-04T07:10:22.666Z,19.06
2017-01-04T07:11:03.173Z,19.43
2017-01-04T07:11:43.646Z,19.35
2017-01-04T07:12:24.127Z,19.15
2017-01-04T07:13:04.615Z,19.82
2017-01-04T07:13:45.103Z,19.82
2017-01-04T07:14:25.602Z,19.72
2017-01-04T07:15:06.084Z,19.82
2017-01-04T07:15:46.575Z,19.54
2017-01-04T07:16:27.054Z,19.72
2017-01-04T07:17:08.326Z,19.53
2017-01-04T07:17:48.813Z,19.53
2017-01-04T07:18:29.892Z,19.72
2017-01-04T07:19:10.379Z,19.92
2017-01-04T07:19:50.866Z,20.11
2017-01-04T07:20:31.980Z,20.01
2017-01-04T07:21:11.856Z,20.01
2017-01-04T07:21:52.348Z,19.92
2017-01-04T07:22:33.477Z,19.92
2017-01-04T07:23:13.979Z,19.92
2017-01-04T07:23:53.789Z,19.83
2017-01-04T07:24:34.293Z,19.64
2017-01-04T07:25:15.479Z,19.73
2017-01-04T07:25:55.244Z,19.93
2017-01-04T07:26:37.490Z,19.92
2017-01-04T07:27:18.493Z,19.73
2017-01-04T07:29:06.566Z,19.45
2017-01-04T07:29:47.560Z,19.45
2017-01-04T07:30:27.514Z,19.35
2017-01-04T07:31:07.997Z,19.25
2017-01-04T07:31:48.481Z,19.25
2017-01-04T07:32:28.974Z,19.45
2017-01-04T07:33:09.454Z,19.54
2017-01-04T07:33:49.921Z,19.45
2017-01-04T07:34:30.383Z,19.54
2017-01-04T07:35:10.885Z,19.15
2017-01-04T07:35:51.371Z,19.15
2017-01-04T07:36:32.561Z,19.73
2017-01-04T07:37:12.361Z,19.43
2017-01-04T07:37:52.814Z,19.54
2017-01-04T07:38:33.309Z,19.25
2017-01-04T07:39:14.267Z,19.25
2017-01-04T07:39:54.753Z,19.82
2017-01-04T07:40:35.241Z,19.64
2017-01-04T07:41:15.731Z,19.64
2017-01-04T07:41:56.219Z,19.15
2017-01-04T07:42:36.703Z,19.53
2017-01-04T07:43:17.184Z,19.45
2017-01-04T07:43:57.666Z,19.45
2017-01-04T07:44:38.181Z,19.53
2017-01-04T07:45:18.665Z,19.63
2017-01-04T07:45:59.149Z,19.06
2017-01-04T07:46:39.634Z,19.35
2017-01-04T07:47:20.114Z,19.25
2017-01-04T07:48:00.608Z,19.15
2017-01-04T07:48:41.094Z,19.25
2017-01-04T07:49:21.582Z,19.35
2017-01-04T07:50:02.069Z,19.15
2017-01-04T07:50:42.558Z,19.25
2017-01-04T07:51:23.071Z,19.25
2017-01-04T07:52:03.555Z,19.35
2017-01-04T07:52:44.049Z,19.25
2017-01-04T07:53:24.545Z,19.45
2017-01-04T07:54:05.029Z,19.25
2017-01-04T07:54:45.526Z,19.25
2017-01-04T07:55:26.005Z,19.15
2017-01-04T07:56:06.496Z,19.35
2017-01-04T07:56:46.983Z,19.25
2017-01-04T07:57:27.500Z,19.35
2017-01-04T07:58:07.978Z,19.35
2017-01-04T07:58:48.448Z,19.35
2017-01-04T07:59:28.943Z,19.25
2017-01-04T08:00:09.506Z,19.25
2017-01-04T08:00:49.994Z,19.35
2017-01-04T08:01:30.494Z,19.54
2017-01-04T08:02:10.997Z,19.25
2017-01-04T08:02:51.505Z,19.15
2017-01-04T08:03:32.270Z,19.73
2017-01-04T08:04:12.737Z,20.21
2017-01-04T08:04:53.250Z,20.11
2017-01-04T08:05:33.742Z,20.02
2017-01-04T08:06:14.258Z,19.93
2017-01-04T08:06:54.743Z,20.12
2017-01-04T08:07:35.255Z,20.31
2017-01-04T08:08:15.719Z,20.5
2017-01-04T08:08:56.197Z,20.5
2017-01-04T08:09:36.701Z,20.12
2017-01-04T08:10:17.188Z,20.4
2017-01-04T08:10:57.697Z,20.4
2017-01-04T08:11:38.184Z,20.4
2017-01-04T08:12:18.682Z,20.6
2017-01-04T08:12:59.181Z,20.5
2017-01-04T08:13:39.694Z,20.5
2017-01-04T08:14:20.184Z,20.4
2017-01-04T08:15:00.680Z,20.6
2017-01-04T08:15:41.159Z,20.5
2017-01-04T08:16:21.635Z,20.79
2017-01-04T08:17:02.140Z,20.79
2017-01-04T08:17:42.626Z,20.7
2017-01-04T08:18:23.140Z,20.6
2017-01-04T08:19:04.242Z,20.79
2017-01-04T08:19:44.740Z,20.89
2017-01-04T08:20:25.238Z,20.5
2017-01-04T08:21:05.749Z,20.5
2017-01-04T08:21:46.243Z,20.5
2017-01-04T08:22:26.735Z,20.5
2017-01-04T08:23:07.235Z,20.4
2017-01-04T08:23:47.731Z,20.6
2017-01-04T08:24:28.217Z,20.5
2017-01-04T08:25:08.701Z,20.4
2017-01-04T08:25:49.211Z,20.6
2017-01-04T08:26:29.700Z,20.6
2017-01-04T08:27:10.192Z,20.6
2017-01-04T08:27:50.682Z,20.6
2017-01-04T08:28:31.181Z,20.6
2017-01-04T08:29:11.694Z,20.6
2017-01-04T08:29:52.196Z,20.6
2017-01-04T08:30:32.681Z,20.5
2017-01-04T08:31:13.190Z,20.5
2017-01-04T08:31:53.677Z,20.7
2017-01-04T08:32:34.174Z,20.5
2017-01-04T08:33:14.656Z,20.5
2017-01-04T08:33:55.145Z,20.5
2017-01-04T08:34:35.636Z,20.4
2017-01-04T08:35:16.129Z,20.79
2017-01-04T08:35:56.622Z,20.7
2017-01-04T08:36:37.117Z,20.7
2017-01-04T08:37:17.609Z,20.51
2017-01-04T08:37:58.093Z,20.42
2017-01-04T08:38:38.577Z,20.31
2017-01-04T08:39:19.080Z,20.5
2017-01-04T08:39:59.569Z,20.61
2017-01-04T08:40:40.079Z,20.61
2017-01-04T08:41:20.569Z,20.6
2017-01-04T08:42:01.065Z,20.6
2017-01-04T08:42:41.545Z,20.42
2017-01-04T08:43:22.041Z,20.5
2017-01-04T08:44:02.532Z,20.5
2017-01-04T08:44:43.021Z,20.51
2017-01-04T08:45:23.523Z,20.42
2017-01-04T08:46:04.012Z,20.5
2017-01-04T08:46:44.522Z,20.5
2017-01-04T08:47:25.020Z,20.51
2017-01-04T08:48:05.521Z,20.5
2017-01-04T08:48:46.011Z,20.6